sensor_id;sensor_type;location;lat;lon;timestamp;temperature;humidity
71188;DHT22;58893;53.130;8.158;2022-12-07T00:00:49;7.70;90.20
71188;DHT22;58893;53.130;8.158;2022-12-07T00:03:14;7.70;90.20
71188;DHT22;58893;53.130;8.158;2022-12-07T00:05:40;7.70;90.10
71188;DHT22;58893;53.130;8.158;2022-12-07T00:08:06;7.70;90.10
71188;DHT22;58893;53.130;8.158;2022-12-07T00:10:33;7.60;90.00
71188;DHT22;58893;53.130;8.158;2022-12-07T00:12:59;7.60;89.90
71188;DHT22;58893;53.130;8.158;2022-12-07T00:15:25;7.60;89.70
71188;DHT22;58893;53.130;8.158;2022-12-07T00:17:51;7.60;89.50
71188;DHT22;58893;53.130;8.158;2022-12-07T00:20:16;7.60;89.20
71188;DHT22;58893;53.130;8.158;2022-12-07T00:22:42;7.50;88.90
71188;DHT22;58893;53.130;8.158;2022-12-07T00:25:07;7.50;88.70
71188;DHT22;58893;53.130;8.158;2022-12-07T00:27:33;7.50;88.60
71188;DHT22;58893;53.130;8.158;2022-12-07T00:30:01;7.50;88.40
71188;DHT22;58893;53.130;8.158;2022-12-07T00:32:27;7.50;88.30
71188;DHT22;58893;53.130;8.158;2022-12-07T00:34:52;7.40;88.00
71188;DHT22;58893;53.130;8.158;2022-12-07T00:37:18;7.40;87.80
71188;DHT22;58893;53.130;8.158;2022-12-07T00:39:45;7.40;87.60
71188;DHT22;58893;53.130;8.158;2022-12-07T00:42:11;7.40;87.30
71188;DHT22;58893;53.130;8.158;2022-12-07T00:44:37;7.40;87.10
71188;DHT22;58893;53.130;8.158;2022-12-07T00:47:02;7.40;87.10
71188;DHT22;58893;53.130;8.158;2022-12-07T00:49:28;7.30;86.70
71188;DHT22;58893;53.130;8.158;2022-12-07T00:51:53;7.30;86.60
71188;DHT22;58893;53.130;8.158;2022-12-07T00:54:19;7.30;86.50
71188;DHT22;58893;53.130;8.158;2022-12-07T00:56:45;7.30;86.40
71188;DHT22;58893;53.130;8.158;2022-12-07T00:59:12;7.20;86.30
71188;DHT22;58893;53.130;8.158;2022-12-07T01:01:40;7.20;86.30
71188;DHT22;58893;53.130;8.158;2022-12-07T01:04:06;7.20;86.40
71188;DHT22;58893;53.130;8.158;2022-12-07T01:06:32;7.20;86.60
71188;DHT22;58893;53.130;8.158;2022-12-07T01:08:58;7.20;86.70
71188;DHT22;58893;53.130;8.158;2022-12-07T01:11:27;7.20;86.70
71188;DHT22;58893;53.130;8.158;2022-12-07T01:13:54;7.20;86.70
71188;DHT22;58893;53.130;8.158;2022-12-07T01:16:22;7.20;86.70
71188;DHT22;58893;53.130;8.158;2022-12-07T01:18:51;7.30;87.00
71188;DHT22;58893;53.130;8.158;2022-12-07T01:21:27;7.20;86.90
71188;DHT22;58893;53.130;8.158;2022-12-07T01:23:54;7.20;86.90
71188;DHT22;58893;53.130;8.158;2022-12-07T01:26:21;7.20;86.80
71188;DHT22;58893;53.130;8.158;2022-12-07T01:28:48;7.20;86.80
71188;DHT22;58893;53.130;8.158;2022-12-07T01:31:16;7.20;86.80
71188;DHT22;58893;53.130;8.158;2022-12-07T01:33:45;7.20;86.80
71188;DHT22;58893;53.130;8.158;2022-12-07T01:38:45;7.20;86.70
71188;DHT22;58893;53.130;8.158;2022-12-07T01:41:12;7.10;87.90
71188;DHT22;58893;53.130;8.158;2022-12-07T01:44:09;7.20;86.70
71188;DHT22;58893;53.130;8.158;2022-12-07T01:46:35;7.10;86.70
71188;DHT22;58893;53.130;8.158;2022-12-07T01:49:01;7.20;86.70
71188;DHT22;58893;53.130;8.158;2022-12-07T01:51:29;7.10;86.70
71188;DHT22;58893;53.130;8.158;2022-12-07T01:53:56;7.10;86.90
71188;DHT22;58893;53.130;8.158;2022-12-07T01:56:25;7.10;87.00
71188;DHT22;58893;53.130;8.158;2022-12-07T01:58:53;7.10;87.30
71188;DHT22;58893;53.130;8.158;2022-12-07T02:01:19;7.10;87.40
71188;DHT22;58893;53.130;8.158;2022-12-07T02:03:45;7.20;87.50
71188;DHT22;58893;53.130;8.158;2022-12-07T02:06:14;7.20;88.20
71188;DHT22;58893;53.130;8.158;2022-12-07T02:08:42;7.20;87.50
71188;DHT22;58893;53.130;8.158;2022-12-07T02:11:09;7.20;87.30
71188;DHT22;58893;53.130;8.158;2022-12-07T02:13:37;7.20;87.20
71188;DHT22;58893;53.130;8.158;2022-12-07T02:16:25;7.10;87.00
71188;DHT22;58893;53.130;8.158;2022-12-07T02:24:51;7.10;86.90
71188;DHT22;58893;53.130;8.158;2022-12-07T02:30:03;7.10;86.70
71188;DHT22;58893;53.130;8.158;2022-12-07T02:37:53;7.10;86.70
71188;DHT22;58893;53.130;8.158;2022-12-07T02:43:43;7.10;86.70
71188;DHT22;58893;53.130;8.158;2022-12-07T02:45:50;7.10;86.60
71188;DHT22;58893;53.130;8.158;2022-12-07T02:48:18;7.10;86.50
71188;DHT22;58893;53.130;8.158;2022-12-07T02:50:54;7.10;86.30
71188;DHT22;58893;53.130;8.158;2022-12-07T02:55:59;7.10;85.80
71188;DHT22;58893;53.130;8.158;2022-12-07T02:58:38;7.00;85.50
71188;DHT22;58893;53.130;8.158;2022-12-07T03:03:48;7.00;85.00
71188;DHT22;58893;53.130;8.158;2022-12-07T03:06:24;7.00;84.80
71188;DHT22;58893;53.130;8.158;2022-12-07T03:08:56;7.00;84.60
71188;DHT22;58893;53.130;8.158;2022-12-07T03:19:18;6.90;84.70
71188;DHT22;58893;53.130;8.158;2022-12-07T03:21:49;6.90;84.90
71188;DHT22;58893;53.130;8.158;2022-12-07T03:24:19;7.00;85.10
71188;DHT22;58893;53.130;8.158;2022-12-07T03:26:49;7.00;85.20
71188;DHT22;58893;53.130;8.158;2022-12-07T03:29:25;7.00;85.30
71188;DHT22;58893;53.130;8.158;2022-12-07T03:32:04;7.00;85.30
71188;DHT22;58893;53.130;8.158;2022-12-07T03:34:34;7.00;85.20
71188;DHT22;58893;53.130;8.158;2022-12-07T03:37:07;7.00;85.00
71188;DHT22;58893;53.130;8.158;2022-12-07T03:42:26;7.00;84.70
71188;DHT22;58893;53.130;8.158;2022-12-07T03:44:51;7.00;84.60
71188;DHT22;58893;53.130;8.158;2022-12-07T03:47:37;7.00;84.50
71188;DHT22;58893;53.130;8.158;2022-12-07T03:52:46;7.00;84.50
71188;DHT22;58893;53.130;8.158;2022-12-07T03:55:25;7.00;84.50
71188;DHT22;58893;53.130;8.158;2022-12-07T03:57:55;7.00;84.50
71188;DHT22;58893;53.130;8.158;2022-12-07T04:00:22;7.00;84.40
71188;DHT22;58893;53.130;8.158;2022-12-07T04:02:48;7.00;84.40
71188;DHT22;58893;53.130;8.158;2022-12-07T04:05:16;7.00;84.30
71188;DHT22;58893;53.130;8.158;2022-12-07T04:07:42;7.00;84.30
71188;DHT22;58893;53.130;8.158;2022-12-07T04:10:08;7.00;84.20
71188;DHT22;58893;53.130;8.158;2022-12-07T04:12:33;7.00;84.20
71188;DHT22;58893;53.130;8.158;2022-12-07T04:14:59;7.00;84.30
71188;DHT22;58893;53.130;8.158;2022-12-07T04:17:25;7.00;84.40
71188;DHT22;58893;53.130;8.158;2022-12-07T04:19:50;7.00;84.50
71188;DHT22;58893;53.130;8.158;2022-12-07T04:22:16;7.00;84.70
71188;DHT22;58893;53.130;8.158;2022-12-07T04:24:41;7.00;84.70
71188;DHT22;58893;53.130;8.158;2022-12-07T04:27:07;7.00;84.80
71188;DHT22;58893;53.130;8.158;2022-12-07T04:29:33;7.00;84.70
71188;DHT22;58893;53.130;8.158;2022-12-07T04:31:58;7.10;84.80
71188;DHT22;58893;53.130;8.158;2022-12-07T04:34:24;7.00;84.70
71188;DHT22;58893;53.130;8.158;2022-12-07T04:36:50;7.00;84.70
71188;DHT22;58893;53.130;8.158;2022-12-07T04:39:27;7.10;84.90
71188;DHT22;58893;53.130;8.158;2022-12-07T04:41:53;7.10;85.00
71188;DHT22;58893;53.130;8.158;2022-12-07T04:44:19;7.10;84.90
71188;DHT22;58893;53.130;8.158;2022-12-07T04:46:46;7.10;84.90
71188;DHT22;58893;53.130;8.158;2022-12-07T04:49:13;7.10;84.90
71188;DHT22;58893;53.130;8.158;2022-12-07T04:51:39;7.10;84.90
71188;DHT22;58893;53.130;8.158;2022-12-07T04:54:05;7.10;84.90
71188;DHT22;58893;53.130;8.158;2022-12-07T04:56:32;7.10;85.00
71188;DHT22;58893;53.130;8.158;2022-12-07T04:58:58;7.10;85.00
71188;DHT22;58893;53.130;8.158;2022-12-07T05:01:23;7.10;85.10
71188;DHT22;58893;53.130;8.158;2022-12-07T05:03:50;7.10;85.20
71188;DHT22;58893;53.130;8.158;2022-12-07T05:06:16;7.10;85.30
71188;DHT22;58893;53.130;8.158;2022-12-07T05:08:41;7.10;85.30
71188;DHT22;58893;53.130;8.158;2022-12-07T05:11:11;7.10;85.30
71188;DHT22;58893;53.130;8.158;2022-12-07T05:14:01;7.10;85.30
71188;DHT22;58893;53.130;8.158;2022-12-07T05:16:27;7.10;85.30
71188;DHT22;58893;53.130;8.158;2022-12-07T05:18:53;7.10;85.30
71188;DHT22;58893;53.130;8.158;2022-12-07T05:21:18;7.10;85.20
71188;DHT22;58893;53.130;8.158;2022-12-07T05:23:44;7.10;85.10
71188;DHT22;58893;53.130;8.158;2022-12-07T05:26:10;7.10;85.00
71188;DHT22;58893;53.130;8.158;2022-12-07T05:28:35;7.10;84.90
71188;DHT22;58893;53.130;8.158;2022-12-07T05:31:01;7.10;84.80
71188;DHT22;58893;53.130;8.158;2022-12-07T05:33:26;7.10;84.70
71188;DHT22;58893;53.130;8.158;2022-12-07T05:35:52;7.00;84.70
71188;DHT22;58893;53.130;8.158;2022-12-07T05:38:18;7.00;84.60
71188;DHT22;58893;53.130;8.158;2022-12-07T05:40:43;7.00;84.70
71188;DHT22;58893;53.130;8.158;2022-12-07T05:43:10;7.00;84.60
71188;DHT22;58893;53.130;8.158;2022-12-07T05:45:36;7.00;84.60
71188;DHT22;58893;53.130;8.158;2022-12-07T05:48:02;7.00;84.70
71188;DHT22;58893;53.130;8.158;2022-12-07T05:50:28;7.00;84.70
71188;DHT22;58893;53.130;8.158;2022-12-07T05:52:54;7.00;84.90
71188;DHT22;58893;53.130;8.158;2022-12-07T05:55:19;7.00;85.00
71188;DHT22;58893;53.130;8.158;2022-12-07T05:57:45;7.00;85.10
71188;DHT22;58893;53.130;8.158;2022-12-07T06:00:31;7.00;85.10
71188;DHT22;58893;53.130;8.158;2022-12-07T06:02:57;7.00;85.10
71188;DHT22;58893;53.130;8.158;2022-12-07T06:05:23;7.00;85.20
71188;DHT22;58893;53.130;8.158;2022-12-07T06:07:49;7.00;85.30
71188;DHT22;58893;53.130;8.158;2022-12-07T06:10:15;7.00;85.30
71188;DHT22;58893;53.130;8.158;2022-12-07T06:12:41;7.00;85.40
71188;DHT22;58893;53.130;8.158;2022-12-07T06:15:09;7.00;85.50
71188;DHT22;58893;53.130;8.158;2022-12-07T06:17:36;7.10;85.60
71188;DHT22;58893;53.130;8.158;2022-12-07T06:20:03;7.10;85.60
71188;DHT22;58893;53.130;8.158;2022-12-07T06:22:28;7.10;85.60
71188;DHT22;58893;53.130;8.158;2022-12-07T06:24:54;7.10;85.50
71188;DHT22;58893;53.130;8.158;2022-12-07T06:27:20;7.10;85.40
71188;DHT22;58893;53.130;8.158;2022-12-07T06:29:45;7.10;85.30
71188;DHT22;58893;53.130;8.158;2022-12-07T06:32:11;7.10;85.30
71188;DHT22;58893;53.130;8.158;2022-12-07T06:34:37;7.10;85.10
71188;DHT22;58893;53.130;8.158;2022-12-07T06:37:03;7.10;85.00
71188;DHT22;58893;53.130;8.158;2022-12-07T06:39:29;7.20;85.00
71188;DHT22;58893;53.130;8.158;2022-12-07T06:41:55;7.20;84.70
71188;DHT22;58893;53.130;8.158;2022-12-07T06:44:21;7.20;84.50
71188;DHT22;58893;53.130;8.158;2022-12-07T06:46:48;7.20;84.40
71188;DHT22;58893;53.130;8.158;2022-12-07T06:49:14;7.20;84.30
71188;DHT22;58893;53.130;8.158;2022-12-07T06:51:40;7.20;84.20
71188;DHT22;58893;53.130;8.158;2022-12-07T06:54:11;7.20;84.20
71188;DHT22;58893;53.130;8.158;2022-12-07T06:56:38;7.20;84.20
71188;DHT22;58893;53.130;8.158;2022-12-07T06:59:04;7.20;84.40
71188;DHT22;58893;53.130;8.158;2022-12-07T07:01:32;7.20;84.50
71188;DHT22;58893;53.130;8.158;2022-12-07T07:03:58;7.20;84.60
71188;DHT22;58893;53.130;8.158;2022-12-07T07:06:23;7.20;84.70
71188;DHT22;58893;53.130;8.158;2022-12-07T07:08:49;7.20;84.70
71188;DHT22;58893;53.130;8.158;2022-12-07T07:11:15;7.20;84.70
71188;DHT22;58893;53.130;8.158;2022-12-07T07:13:40;7.20;84.60
71188;DHT22;58893;53.130;8.158;2022-12-07T07:16:06;7.20;84.50
71188;DHT22;58893;53.130;8.158;2022-12-07T07:18:32;7.20;84.40
71188;DHT22;58893;53.130;8.158;2022-12-07T07:20:58;7.20;84.30
71188;DHT22;58893;53.130;8.158;2022-12-07T07:23:24;7.10;84.10
71188;DHT22;58893;53.130;8.158;2022-12-07T07:25:49;7.10;83.90
71188;DHT22;58893;53.130;8.158;2022-12-07T07:28:16;7.10;83.90
71188;DHT22;58893;53.130;8.158;2022-12-07T07:30:42;7.10;83.80
71188;DHT22;58893;53.130;8.158;2022-12-07T07:33:08;7.10;83.70
71188;DHT22;58893;53.130;8.158;2022-12-07T07:35:34;7.00;83.50
71188;DHT22;58893;53.130;8.158;2022-12-07T07:38:00;7.00;83.50
71188;DHT22;58893;53.130;8.158;2022-12-07T07:40:27;7.00;83.40
71188;DHT22;58893;53.130;8.158;2022-12-07T07:42:54;7.00;83.30
71188;DHT22;58893;53.130;8.158;2022-12-07T07:45:21;6.90;83.10
71188;DHT22;58893;53.130;8.158;2022-12-07T07:47:48;6.90;83.10
71188;DHT22;58893;53.130;8.158;2022-12-07T07:50:14;6.90;83.10
71188;DHT22;58893;53.130;8.158;2022-12-07T07:52:40;6.90;83.20
71188;DHT22;58893;53.130;8.158;2022-12-07T07:55:06;6.90;83.20
71188;DHT22;58893;53.130;8.158;2022-12-07T07:57:34;6.90;83.30
71188;DHT22;58893;53.130;8.158;2022-12-07T08:00:00;6.90;83.30
71188;DHT22;58893;53.130;8.158;2022-12-07T08:02:26;6.90;83.20
71188;DHT22;58893;53.130;8.158;2022-12-07T08:04:51;6.90;83.30
71188;DHT22;58893;53.130;8.158;2022-12-07T08:07:17;6.90;83.30
71188;DHT22;58893;53.130;8.158;2022-12-07T08:09:42;6.90;83.40
71188;DHT22;58893;53.130;8.158;2022-12-07T08:12:08;6.90;83.40
71188;DHT22;58893;53.130;8.158;2022-12-07T08:14:34;6.90;83.40
71188;DHT22;58893;53.130;8.158;2022-12-07T08:17:00;6.90;83.40
71188;DHT22;58893;53.130;8.158;2022-12-07T08:19:25;6.90;83.30
71188;DHT22;58893;53.130;8.158;2022-12-07T08:21:51;6.90;83.20
71188;DHT22;58893;53.130;8.158;2022-12-07T08:24:17;6.90;83.20
71188;DHT22;58893;53.130;8.158;2022-12-07T08:26:43;6.90;83.20
71188;DHT22;58893;53.130;8.158;2022-12-07T08:29:09;6.90;83.30
71188;DHT22;58893;53.130;8.158;2022-12-07T08:31:35;6.90;83.30
71188;DHT22;58893;53.130;8.158;2022-12-07T08:34:01;6.90;84.00
71188;DHT22;58893;53.130;8.158;2022-12-07T08:36:26;6.90;83.30
71188;DHT22;58893;53.130;8.158;2022-12-07T08:38:52;6.90;83.20
71188;DHT22;58893;53.130;8.158;2022-12-07T08:41:18;6.90;83.30
71188;DHT22;58893;53.130;8.158;2022-12-07T08:43:43;7.00;83.50
71188;DHT22;58893;53.130;8.158;2022-12-07T08:48:53;7.00;83.50
71188;DHT22;58893;53.130;8.158;2022-12-07T08:51:21;7.00;83.70
71188;DHT22;58893;53.130;8.158;2022-12-07T08:53:49;7.00;83.70
71188;DHT22;58893;53.130;8.158;2022-12-07T08:56:14;7.00;83.70
71188;DHT22;58893;53.130;8.158;2022-12-07T08:58:40;7.00;83.90
71188;DHT22;58893;53.130;8.158;2022-12-07T09:01:06;7.00;83.90
71188;DHT22;58893;53.130;8.158;2022-12-07T09:03:32;7.00;84.00
71188;DHT22;58893;53.130;8.158;2022-12-07T09:05:59;7.00;84.00
71188;DHT22;58893;53.130;8.158;2022-12-07T09:08:31;7.00;84.10
71188;DHT22;58893;53.130;8.158;2022-12-07T09:10:59;7.00;84.20
71188;DHT22;58893;53.130;8.158;2022-12-07T09:13:24;7.00;84.20
71188;DHT22;58893;53.130;8.158;2022-12-07T09:15:51;7.10;84.30
71188;DHT22;58893;53.130;8.158;2022-12-07T09:18:16;7.10;84.40
71188;DHT22;58893;53.130;8.158;2022-12-07T09:20:42;7.10;84.50
71188;DHT22;58893;53.130;8.158;2022-12-07T09:23:08;7.10;84.50
71188;DHT22;58893;53.130;8.158;2022-12-07T09:25:34;7.10;84.50
71188;DHT22;58893;53.130;8.158;2022-12-07T09:28:00;7.10;84.50
71188;DHT22;58893;53.130;8.158;2022-12-07T09:30:27;7.10;84.50
71188;DHT22;58893;53.130;8.158;2022-12-07T09:32:56;7.20;84.70
71188;DHT22;58893;53.130;8.158;2022-12-07T09:35:24;7.20;86.00
71188;DHT22;58893;53.130;8.158;2022-12-07T09:37:49;7.30;88.20
71188;DHT22;58893;53.130;8.158;2022-12-07T09:40:17;7.40;88.00
71188;DHT22;58893;53.130;8.158;2022-12-07T09:42:47;7.50;87.40
71188;DHT22;58893;53.130;8.158;2022-12-07T09:45:31;7.60;86.50
71188;DHT22;58893;53.130;8.158;2022-12-07T09:47:58;7.60;85.70
71188;DHT22;58893;53.130;8.158;2022-12-07T09:50:28;7.70;85.40
71188;DHT22;58893;53.130;8.158;2022-12-07T09:53:07;7.70;85.50
71188;DHT22;58893;53.130;8.158;2022-12-07T09:55:33;7.80;85.40
71188;DHT22;58893;53.130;8.158;2022-12-07T09:58:01;7.90;84.90
71188;DHT22;58893;53.130;8.158;2022-12-07T10:00:26;7.90;84.40
71188;DHT22;58893;53.130;8.158;2022-12-07T10:03:01;7.90;84.10
71188;DHT22;58893;53.130;8.158;2022-12-07T10:08:00;8.00;83.80
71188;DHT22;58893;53.130;8.158;2022-12-07T10:10:30;8.00;83.60
71188;DHT22;58893;53.130;8.158;2022-12-07T10:13:08;8.00;83.50
71188;DHT22;58893;53.130;8.158;2022-12-07T10:15:57;8.00;83.60
71188;DHT22;58893;53.130;8.158;2022-12-07T10:18:35;8.10;83.70
71188;DHT22;58893;53.130;8.158;2022-12-07T10:23:35;8.10;83.40
71188;DHT22;58893;53.130;8.158;2022-12-07T10:27:10;8.20;83.40
71188;DHT22;58893;53.130;8.158;2022-12-07T10:29:17;8.20;83.30
71188;DHT22;58893;53.130;8.158;2022-12-07T10:31:54;8.20;83.10
71188;DHT22;58893;53.130;8.158;2022-12-07T10:34:31;8.30;83.00
71188;DHT22;58893;53.130;8.158;2022-12-07T10:39:43;8.30;82.40
71188;DHT22;58893;53.130;8.158;2022-12-07T10:44:41;8.30;81.60
71188;DHT22;58893;53.130;8.158;2022-12-07T10:52:36;8.40;80.50
71188;DHT22;58893;53.130;8.158;2022-12-07T10:55:32;8.40;80.20
71188;DHT22;58893;53.130;8.158;2022-12-07T11:09:06;8.40;79.60
71188;DHT22;58893;53.130;8.158;2022-12-07T11:11:50;8.40;79.60
71188;DHT22;58893;53.130;8.158;2022-12-07T11:15:28;8.40;79.60
71188;DHT22;58893;53.130;8.158;2022-12-07T11:17:52;8.40;79.40
71188;DHT22;58893;53.130;8.158;2022-12-07T11:20:43;8.40;79.20
71188;DHT22;58893;53.130;8.158;2022-12-07T11:23:14;8.40;79.20
71188;DHT22;58893;53.130;8.158;2022-12-07T11:28:39;8.40;79.00
71188;DHT22;58893;53.130;8.158;2022-12-07T11:33:53;8.50;79.10
71188;DHT22;58893;53.130;8.158;2022-12-07T11:36:42;8.50;79.10
71188;DHT22;58893;53.130;8.158;2022-12-07T11:39:35;8.50;79.10
71188;DHT22;58893;53.130;8.158;2022-12-07T11:42:28;8.50;79.10
71188;DHT22;58893;53.130;8.158;2022-12-07T11:47:54;8.50;78.80
71188;DHT22;58893;53.130;8.158;2022-12-07T11:50:47;8.50;78.70
71188;DHT22;58893;53.130;8.158;2022-12-07T11:53:24;8.50;78.70
71188;DHT22;58893;53.130;8.158;2022-12-07T11:56:02;8.50;78.60
71188;DHT22;58893;53.130;8.158;2022-12-07T12:06:43;8.50;78.50
71188;DHT22;58893;53.130;8.158;2022-12-07T12:20:50;8.60;79.00
71188;DHT22;58893;53.130;8.158;2022-12-07T12:25:49;8.60;78.60
71188;DHT22;58893;53.130;8.158;2022-12-07T12:28:49;8.60;78.40
71188;DHT22;58893;53.130;8.158;2022-12-07T12:31:40;8.60;78.20
71188;DHT22;58893;53.130;8.158;2022-12-07T12:34:30;8.60;78.00
71188;DHT22;58893;53.130;8.158;2022-12-07T12:36:56;8.60;77.70
71188;DHT22;58893;53.130;8.158;2022-12-07T12:39:23;8.60;77.30
71188;DHT22;58893;53.130;8.158;2022-12-07T12:41:56;8.70;77.10
71188;DHT22;58893;53.130;8.158;2022-12-07T12:51:54;8.60;76.10
71188;DHT22;58893;53.130;8.158;2022-12-07T13:02:39;8.60;75.60
71188;DHT22;58893;53.130;8.158;2022-12-07T13:15:49;8.70;75.20
71188;DHT22;58893;53.130;8.158;2022-12-07T13:26:23;8.70;74.90
71188;DHT22;58893;53.130;8.158;2022-12-07T13:34:26;8.70;74.60
71188;DHT22;58893;53.130;8.158;2022-12-07T13:36:51;8.80;74.50
71188;DHT22;58893;53.130;8.158;2022-12-07T13:39:18;8.80;74.50
71188;DHT22;58893;53.130;8.158;2022-12-07T13:41:44;8.70;74.40
71188;DHT22;58893;53.130;8.158;2022-12-07T13:44:15;8.70;74.30
71188;DHT22;58893;53.130;8.158;2022-12-07T13:51:43;8.70;74.20
71188;DHT22;58893;53.130;8.158;2022-12-07T13:54:11;8.70;74.20
71188;DHT22;58893;53.130;8.158;2022-12-07T13:56:38;8.70;74.10
71188;DHT22;58893;53.130;8.158;2022-12-07T13:59:17;8.70;74.10
71188;DHT22;58893;53.130;8.158;2022-12-07T14:01:45;8.70;74.10
71188;DHT22;58893;53.130;8.158;2022-12-07T14:06:52;8.60;73.90
71188;DHT22;58893;53.130;8.158;2022-12-07T14:09:28;8.60;74.00
71188;DHT22;58893;53.130;8.158;2022-12-07T14:11:55;8.60;74.10
71188;DHT22;58893;53.130;8.158;2022-12-07T14:14:25;8.60;74.30
71188;DHT22;58893;53.130;8.158;2022-12-07T14:17:17;8.60;74.50
71188;DHT22;58893;53.130;8.158;2022-12-07T14:24:43;8.40;73.90
71188;DHT22;58893;53.130;8.158;2022-12-07T14:27:21;8.30;73.60
71188;DHT22;58893;53.130;8.158;2022-12-07T14:29:48;8.30;73.20
71188;DHT22;58893;53.130;8.158;2022-12-07T14:32:25;8.20;73.10
71188;DHT22;58893;53.130;8.158;2022-12-07T14:37:26;8.00;72.90
71188;DHT22;58893;53.130;8.158;2022-12-07T14:39:52;8.00;73.10
71188;DHT22;58893;53.130;8.158;2022-12-07T14:42:18;8.00;73.30
71188;DHT22;58893;53.130;8.158;2022-12-07T14:44:44;7.90;73.30
71188;DHT22;58893;53.130;8.158;2022-12-07T14:47:10;7.90;73.60
71188;DHT22;58893;53.130;8.158;2022-12-07T14:49:36;7.90;74.50
71188;DHT22;58893;53.130;8.158;2022-12-07T14:52:02;7.90;75.60
71188;DHT22;58893;53.130;8.158;2022-12-07T14:54:31;7.90;75.90
71188;DHT22;58893;53.130;8.158;2022-12-07T14:56:57;7.90;76.00
71188;DHT22;58893;53.130;8.158;2022-12-07T14:59:23;8.00;76.70
71188;DHT22;58893;53.130;8.158;2022-12-07T15:01:49;8.10;79.60
71188;DHT22;58893;53.130;8.158;2022-12-07T15:04:15;8.30;80.90
71188;DHT22;58893;53.130;8.158;2022-12-07T15:06:41;8.50;80.20
71188;DHT22;58893;53.130;8.158;2022-12-07T15:09:10;8.60;79.30
71188;DHT22;58893;53.130;8.158;2022-12-07T15:11:36;8.60;78.20
71188;DHT22;58893;53.130;8.158;2022-12-07T15:14:02;8.60;77.50
71188;DHT22;58893;53.130;8.158;2022-12-07T15:16:38;8.50;77.00
71188;DHT22;58893;53.130;8.158;2022-12-07T15:19:06;8.40;76.80
71188;DHT22;58893;53.130;8.158;2022-12-07T15:21:31;8.40;77.10
71188;DHT22;58893;53.130;8.158;2022-12-07T15:23:57;8.30;77.20
71188;DHT22;58893;53.130;8.158;2022-12-07T15:26:22;8.30;77.20
71188;DHT22;58893;53.130;8.158;2022-12-07T15:28:48;8.30;77.40
71188;DHT22;58893;53.130;8.158;2022-12-07T15:31:16;8.20;77.30
71188;DHT22;58893;53.130;8.158;2022-12-07T15:33:42;8.20;77.30
71188;DHT22;58893;53.130;8.158;2022-12-07T15:36:18;8.20;77.30
71188;DHT22;58893;53.130;8.158;2022-12-07T15:38:44;8.10;77.20
71188;DHT22;58893;53.130;8.158;2022-12-07T15:41:09;8.10;77.10
71188;DHT22;58893;53.130;8.158;2022-12-07T15:43:36;8.10;77.00
71188;DHT22;58893;53.130;8.158;2022-12-07T15:46:20;8.00;76.80
71188;DHT22;58893;53.130;8.158;2022-12-07T15:48:46;8.00;76.50
71188;DHT22;58893;53.130;8.158;2022-12-07T15:51:11;8.00;76.10
71188;DHT22;58893;53.130;8.158;2022-12-07T15:53:38;8.00;76.00
71188;DHT22;58893;53.130;8.158;2022-12-07T15:56:07;7.90;75.80
71188;DHT22;58893;53.130;8.158;2022-12-07T15:58:33;7.90;75.60
71188;DHT22;58893;53.130;8.158;2022-12-07T16:00:59;7.90;75.50
71188;DHT22;58893;53.130;8.158;2022-12-07T16:03:26;7.90;75.40
71188;DHT22;58893;53.130;8.158;2022-12-07T16:05:52;7.90;75.30
71188;DHT22;58893;53.130;8.158;2022-12-07T16:08:18;7.80;75.30
71188;DHT22;58893;53.130;8.158;2022-12-07T16:10:44;7.80;75.30
71188;DHT22;58893;53.130;8.158;2022-12-07T16:13:11;7.80;75.30
71188;DHT22;58893;53.130;8.158;2022-12-07T16:15:40;7.80;75.50
71188;DHT22;58893;53.130;8.158;2022-12-07T16:18:06;7.80;75.70
71188;DHT22;58893;53.130;8.158;2022-12-07T16:20:31;7.70;75.90
71188;DHT22;58893;53.130;8.158;2022-12-07T16:22:57;7.70;76.10
71188;DHT22;58893;53.130;8.158;2022-12-07T16:25:23;7.70;76.30
71188;DHT22;58893;53.130;8.158;2022-12-07T16:27:49;7.70;76.60
71188;DHT22;58893;53.130;8.158;2022-12-07T16:30:15;7.60;76.70
71188;DHT22;58893;53.130;8.158;2022-12-07T16:32:42;7.60;76.90
71188;DHT22;58893;53.130;8.158;2022-12-07T16:35:08;7.60;77.10
71188;DHT22;58893;53.130;8.158;2022-12-07T16:37:34;7.60;77.40
71188;DHT22;58893;53.130;8.158;2022-12-07T16:40:00;7.60;77.80
71188;DHT22;58893;53.130;8.158;2022-12-07T16:42:25;7.60;78.10
71188;DHT22;58893;53.130;8.158;2022-12-07T16:44:52;7.60;78.40
71188;DHT22;58893;53.130;8.158;2022-12-07T16:47:17;7.60;78.60
71188;DHT22;58893;53.130;8.158;2022-12-07T16:49:43;7.60;78.90
71188;DHT22;58893;53.130;8.158;2022-12-07T16:52:09;7.60;79.10
71188;DHT22;58893;53.130;8.158;2022-12-07T16:54:36;7.60;79.30
71188;DHT22;58893;53.130;8.158;2022-12-07T16:57:01;7.60;79.50
71188;DHT22;58893;53.130;8.158;2022-12-07T16:59:27;7.60;79.70
71188;DHT22;58893;53.130;8.158;2022-12-07T17:01:53;7.60;79.80
71188;DHT22;58893;53.130;8.158;2022-12-07T17:04:18;7.60;79.70
71188;DHT22;58893;53.130;8.158;2022-12-07T17:06:44;7.60;79.60
71188;DHT22;58893;53.130;8.158;2022-12-07T17:09:09;7.60;79.60
71188;DHT22;58893;53.130;8.158;2022-12-07T17:11:37;7.60;79.50
71188;DHT22;58893;53.130;8.158;2022-12-07T17:14:03;7.60;79.50
71188;DHT22;58893;53.130;8.158;2022-12-07T17:16:48;7.60;79.30
71188;DHT22;58893;53.130;8.158;2022-12-07T17:19:15;7.50;79.10
71188;DHT22;58893;53.130;8.158;2022-12-07T17:21:42;7.50;79.10
71188;DHT22;58893;53.130;8.158;2022-12-07T17:24:09;7.50;79.00
71188;DHT22;58893;53.130;8.158;2022-12-07T17:26:36;7.50;78.90
71188;DHT22;58893;53.130;8.158;2022-12-07T17:29:04;7.50;78.80
71188;DHT22;58893;53.130;8.158;2022-12-07T17:31:30;7.50;78.70
71188;DHT22;58893;53.130;8.158;2022-12-07T17:33:55;7.50;78.50
71188;DHT22;58893;53.130;8.158;2022-12-07T17:36:26;7.50;78.40
71188;DHT22;58893;53.130;8.158;2022-12-07T17:38:52;7.40;78.30
71188;DHT22;58893;53.130;8.158;2022-12-07T17:41:23;7.40;78.10
71188;DHT22;58893;53.130;8.158;2022-12-07T17:44:11;7.40;78.00
71188;DHT22;58893;53.130;8.158;2022-12-07T17:46:38;7.40;77.80
71188;DHT22;58893;53.130;8.158;2022-12-07T17:49:04;7.40;77.60
71188;DHT22;58893;53.130;8.158;2022-12-07T17:51:30;7.40;77.50
71188;DHT22;58893;53.130;8.158;2022-12-07T17:54:15;7.30;77.10
71188;DHT22;58893;53.130;8.158;2022-12-07T17:56:41;7.30;76.90
71188;DHT22;58893;53.130;8.158;2022-12-07T17:59:08;7.30;76.80
71188;DHT22;58893;53.130;8.158;2022-12-07T18:01:34;7.30;76.70
71188;DHT22;58893;53.130;8.158;2022-12-07T18:03:59;7.20;76.50
71188;DHT22;58893;53.130;8.158;2022-12-07T18:06:25;7.20;76.40
71188;DHT22;58893;53.130;8.158;2022-12-07T18:08:51;7.20;76.30
71188;DHT22;58893;53.130;8.158;2022-12-07T18:11:17;7.20;76.20
71188;DHT22;58893;53.130;8.158;2022-12-07T18:13:42;7.20;76.00
71188;DHT22;58893;53.130;8.158;2022-12-07T18:16:12;7.10;75.90
71188;DHT22;58893;53.130;8.158;2022-12-07T18:18:38;7.10;75.80
71188;DHT22;58893;53.130;8.158;2022-12-07T18:21:09;7.10;75.70
71188;DHT22;58893;53.130;8.158;2022-12-07T18:23:39;7.10;75.70
71188;DHT22;58893;53.130;8.158;2022-12-07T18:26:04;7.10;75.70
71188;DHT22;58893;53.130;8.158;2022-12-07T18:28:30;7.00;75.70